Portada
METAR-TAF:

METAR-TAF

Aeroports :

Dar es Salaam, Tanzània

latitud: 06-52S, longitud: 039-12E, altitud: 55 m

Observació

L'informe es va fer fa 2 hores i 26 minuts, a les 18:00 UTC
Vent 4 kt del Est/Sud-Est
Temperatura 23°C
Humitat 89%
Pressió 1019 hPa
Visibilitat 10 km o més
Escasses núvols a una alçada de 1300 ft

METAR: HTDA 161800Z 12004KT 9999 FEW013 23/21 Q1019 NOSIG

Hora: 23:26 (20:26 UTC)

Pronòstic

L'informe es va fer fa 9 hores i 26 minuts, a les 11:00 UTC
Pronòstic vàlid del 16 a les 12 UTC al 17 a les 18 UTC
Vent 10 kt del Sud-Est
Visibilitat 10 km o més
Cel ennuvolat a una alçada de 2400 ft
Evolucionant progressivament
l' 16 a les 18 UTC al 16 a les 21 UTC
Vent kt del Nord
Escasses núvols a una alçada de 1600 ft

TAF: HTDA 161100Z 1612/1718 13010KT 9999 BKN024 BECMG 1618/1621 00000KT FEW016

Observacions i pronòstics meteorològics de més de 4000 aeroports (METAR i TAF).

Les estacions disponibles són els punts grocs i vermells al mapa.

Posi el ratolí al punt desitjat per veure el nom de l'estació.

Feu clic per veure les observacions i els pronòstics meteorològics.

Per canviar el mapa: feu clic els botons verds amb una creu de color negre per apropar; al botó verd amb un guió per allunyar la imatge; o en les fletxes verdes per a mapes adjacents.


METAR-TAF: